createdAt,value
2018-11-07T00:01:08.757Z,10.10
2018-11-07T00:07:14.337Z,10.10
2018-11-07T00:13:20.291Z,10.00
2018-11-07T00:19:25.053Z,10.00
2018-11-07T00:25:30.155Z,9.80
2018-11-07T00:31:36.233Z,9.60
2018-11-07T00:37:42.067Z,9.50
2018-11-07T00:43:46.723Z,9.40
2018-11-07T00:49:51.732Z,9.30
2018-11-07T00:55:56.492Z,9.20
2018-11-07T01:02:01.168Z,9.10
2018-11-07T01:08:05.963Z,9.00
2018-11-07T01:14:10.891Z,9.10
2018-11-07T01:20:15.717Z,9.10
2018-11-07T01:26:20.494Z,9.30
2018-11-07T01:32:25.152Z,9.40
2018-11-07T01:38:29.904Z,9.40
2018-11-07T01:44:34.667Z,9.40
2018-11-07T01:50:39.352Z,9.40
2018-11-07T01:56:44.028Z,9.30
2018-11-07T02:02:48.721Z,9.30
2018-11-07T02:08:53.472Z,9.20
2018-11-07T02:14:59.002Z,9.20
2018-11-07T02:21:03.758Z,9.20
2018-11-07T02:27:08.761Z,9.10
2018-11-07T02:33:13.791Z,8.90
2018-11-07T02:39:18.441Z,8.70
2018-11-07T02:45:23.112Z,8.50
2018-11-07T02:51:27.759Z,8.40
2018-11-07T02:57:32.610Z,8.40
2018-11-07T03:03:37.860Z,8.50
2018-11-07T03:09:42.952Z,8.60
2018-11-07T03:15:47.625Z,8.50
2018-11-07T03:21:52.305Z,8.50
2018-11-07T03:28:03.716Z,8.40
2018-11-07T03:34:08.724Z,8.50
2018-11-07T03:40:13.932Z,8.50
2018-11-07T03:46:18.735Z,8.50
2018-11-07T03:52:23.417Z,8.50
2018-11-07T03:58:28.380Z,8.50
2018-11-07T04:04:33.039Z,8.40
2018-11-07T04:10:38.585Z,8.30
2018-11-07T04:16:43.612Z,8.20
2018-11-07T04:22:48.289Z,8.20
2018-11-07T04:28:52.957Z,8.20
2018-11-07T04:34:57.710Z,8.10
2018-11-07T04:41:02.435Z,8.10
2018-11-07T04:47:07.791Z,8.20
2018-11-07T04:53:12.555Z,8.10
2018-11-07T04:59:17.206Z,8.10
2018-11-07T05:05:22.170Z,8.00
2018-11-07T05:11:27.150Z,7.90
2018-11-07T05:17:31.854Z,8.00
2018-11-07T05:23:36.653Z,8.00
2018-11-07T05:29:41.395Z,7.90
2018-11-07T05:35:46.116Z,7.90
2018-11-07T05:41:51.148Z,7.90
2018-11-07T05:47:55.871Z,7.90
2018-11-07T05:54:00.943Z,7.90
2018-11-07T06:00:06.759Z,7.90
2018-11-07T06:06:11.500Z,7.90
2018-11-07T06:12:16.488Z,7.90
2018-11-07T06:18:21.249Z,7.80
2018-11-07T06:24:26.028Z,7.70
2018-11-07T06:30:30.810Z,7.60
2018-11-07T06:36:36.556Z,7.50
2018-11-07T06:42:41.574Z,7.40
2018-11-07T06:48:46.957Z,7.40
2018-11-07T06:54:51.627Z,7.30
2018-11-07T07:00:56.380Z,7.40
2018-11-07T07:07:01.123Z,7.40
2018-11-07T07:13:06.704Z,7.50
2018-11-07T07:19:11.397Z,7.50
2018-11-07T07:25:16.210Z,7.60
2018-11-07T07:31:20.998Z,7.90
2018-11-07T07:37:25.838Z,8.00
2018-11-07T07:43:30.543Z,8.00
2018-11-07T07:49:36.043Z,8.00
2018-11-07T07:55:41.111Z,8.00
2018-11-07T08:01:46.027Z,8.20
2018-11-07T08:07:50.807Z,8.20
2018-11-07T08:13:55.539Z,8.30
2018-11-07T08:20:00.250Z,8.50
2018-11-07T08:26:05.247Z,8.70
2018-11-07T08:32:09.973Z,8.80
2018-11-07T08:38:15.608Z,8.90
2018-11-07T08:44:21.573Z,9.00
2018-11-07T08:50:26.622Z,9.10
2018-11-07T08:56:31.291Z,9.10
2018-11-07T09:02:35.937Z,9.30
2018-11-07T09:08:40.696Z,9.40
2018-11-07T09:14:45.412Z,9.50
2018-11-07T09:20:50.063Z,9.60
2018-11-07T09:26:55.199Z,9.70
2018-11-07T09:33:00.025Z,9.90
2018-11-07T09:39:07.349Z,10.20
2018-11-07T09:45:14.316Z,10.40
2018-11-07T09:51:19.030Z,10.50
2018-11-07T09:57:24.341Z,10.70
2018-11-07T10:03:29.027Z,10.80
2018-11-07T10:09:33.718Z,10.90
2018-11-07T10:15:38.712Z,11.00
2018-11-07T10:21:43.421Z,11.00
2018-11-07T10:27:48.221Z,11.20
2018-11-07T10:33:53.230Z,11.30
2018-11-07T10:39:57.999Z,11.50
2018-11-07T10:46:03.263Z,11.50
2018-11-07T10:52:08.549Z,11.60
2018-11-07T10:58:13.278Z,11.70
2018-11-07T11:04:17.971Z,11.80
2018-11-07T11:10:23.201Z,11.90
2018-11-07T11:16:28.310Z,12.10
2018-11-07T11:22:32.955Z,12.20
2018-11-07T11:28:37.641Z,12.40
2018-11-07T11:34:42.356Z,12.50
2018-11-07T11:40:46.985Z,12.60
2018-11-07T11:46:52.058Z,12.80
2018-11-07T11:52:56.780Z,12.90
2018-11-07T11:59:01.867Z,12.90
2018-11-07T12:05:08.905Z,13.00
2018-11-07T12:11:13.568Z,13.10
2018-11-07T12:17:18.251Z,13.30
2018-11-07T12:23:24.028Z,13.60
2018-11-07T12:29:28.835Z,13.80
2018-11-07T12:35:33.565Z,13.90
2018-11-07T12:41:38.384Z,14.10
2018-11-07T12:47:43.682Z,14.20
2018-11-07T12:53:48.384Z,14.20
2018-11-07T12:59:53.832Z,14.20
2018-11-07T13:05:58.514Z,14.10
2018-11-07T13:12:03.229Z,14.10
2018-11-07T13:18:08.312Z,14.10
2018-11-07T13:24:13.003Z,14.10
2018-11-07T13:30:19.260Z,14.10
2018-11-07T13:36:24.004Z,14.10
2018-11-07T13:42:28.816Z,14.10
2018-11-07T13:48:33.650Z,14.10
2018-11-07T13:54:38.661Z,14.10
2018-11-07T14:00:43.339Z,14.00
2018-11-07T14:06:48.068Z,14.00
2018-11-07T14:12:53.178Z,14.00
2018-11-07T14:18:58.032Z,13.90
2018-11-07T14:25:03.141Z,14.00
2018-11-07T14:31:08.970Z,13.90
2018-11-07T14:37:14.028Z,13.90
2018-11-07T14:43:18.694Z,13.90
2018-11-07T14:49:23.328Z,13.70
2018-11-07T14:55:28.027Z,13.60
2018-11-07T15:01:32.692Z,13.50
2018-11-07T15:07:38.129Z,13.50
2018-11-07T15:13:42.901Z,13.30
2018-11-07T15:19:47.690Z,13.20
2018-11-07T15:25:52.409Z,13.00
2018-11-07T15:31:57.100Z,12.80
2018-11-07T15:38:02.301Z,12.70
2018-11-07T15:44:07.151Z,12.50
2018-11-07T15:50:17.063Z,12.40
2018-11-07T15:56:21.936Z,12.20
2018-11-07T16:02:26.624Z,12.10
2018-11-07T16:08:31.798Z,12.00
2018-11-07T16:14:37.154Z,11.90
2018-11-07T16:20:42.212Z,11.80
2018-11-07T16:26:46.866Z,11.70
2018-11-07T16:32:51.544Z,11.70
2018-11-07T16:38:56.645Z,11.60
2018-11-07T16:45:01.660Z,11.40
2018-11-07T16:51:07.038Z,11.50
2018-11-07T16:57:18.640Z,11.40
2018-11-07T17:03:23.960Z,11.40
2018-11-07T17:09:28.692Z,11.50
2018-11-07T17:15:33.491Z,11.50
2018-11-07T17:21:38.218Z,11.50
2018-11-07T17:27:43.405Z,11.40
2018-11-07T17:33:48.166Z,11.10
2018-11-07T17:39:52.895Z,10.90
2018-11-07T17:45:57.575Z,10.70
2018-11-07T17:52:02.323Z,10.50
2018-11-07T17:58:07.467Z,10.40
2018-11-07T18:04:12.648Z,10.30
2018-11-07T18:10:18.446Z,10.30
2018-11-07T18:16:23.188Z,10.30
2018-11-07T18:22:27.943Z,10.20
2018-11-07T18:28:32.734Z,10.10
2018-11-07T18:34:38.125Z,10.00
2018-11-07T18:40:43.260Z,10.10
2018-11-07T18:46:48.051Z,10.00
2018-11-07T18:52:52.741Z,10.00
2018-11-07T18:58:57.814Z,10.00
2018-11-07T19:05:02.367Z,9.90
2018-11-07T19:11:07.133Z,10.00
2018-11-07T19:17:11.795Z,9.90
2018-11-07T19:23:16.609Z,9.90
2018-11-07T19:29:21.348Z,9.70
2018-11-07T19:35:26.403Z,9.60
2018-11-07T19:41:31.090Z,9.50
2018-11-07T19:47:36.911Z,9.50
2018-11-07T19:53:42.457Z,9.50
2018-11-07T19:59:47.308Z,9.30
2018-11-07T20:05:52.313Z,9.30
2018-11-07T20:11:57.183Z,9.20
2018-11-07T20:18:01.854Z,8.90
2018-11-07T20:24:07.279Z,8.70
2018-11-07T20:30:14.293Z,8.70
2018-11-07T20:36:19.110Z,8.70
2018-11-07T20:42:24.696Z,8.70
2018-11-07T20:48:29.466Z,8.80
2018-11-07T20:54:34.571Z,9.00
2018-11-07T21:00:39.300Z,9.20
2018-11-07T21:06:44.013Z,9.40
2018-11-07T21:12:49.199Z,9.60
2018-11-07T21:18:54.351Z,9.50
2018-11-07T21:24:59.093Z,9.40
2018-11-07T21:31:03.933Z,9.10
2018-11-07T21:37:08.579Z,8.90
2018-11-07T21:43:13.646Z,8.70
2018-11-07T21:49:18.389Z,8.70
2018-11-07T21:55:23.108Z,8.70
2018-11-07T22:01:27.937Z,8.70
2018-11-07T22:07:32.668Z,8.80
2018-11-07T22:13:37.429Z,8.80
2018-11-07T22:19:42.181Z,8.80
2018-11-07T22:25:46.852Z,8.70
2018-11-07T22:31:52.328Z,8.70
2018-11-07T22:37:57.113Z,8.60
2018-11-07T22:44:01.899Z,8.40
2018-11-07T22:50:08.280Z,8.40
2018-11-07T22:56:13.083Z,8.40
2018-11-07T23:02:17.827Z,8.40
2018-11-07T23:08:22.960Z,8.50
2018-11-07T23:14:28.068Z,8.60
2018-11-07T23:20:32.801Z,8.60
2018-11-07T23:26:37.998Z,8.60
2018-11-07T23:32:42.862Z,8.70
2018-11-07T23:38:47.608Z,8.80
2018-11-07T23:44:52.333Z,8.90
2018-11-07T23:50:57.423Z,8.60
2018-11-07T23:57:02.328Z,8.50
